LHX1944 EDDM-EDDB
Flight info
| Callsign | LHX1944 |
|---|---|
| Flight time | N/A |
| Altitude | 29000 |
| Route | AKINI1Q AKINI Y104 MAMOR L132 RUDNO T203 TIVDA DCT ETVIS DCT NAVEK DCT GAVLI T203 ATGUP ATGUP1R |
| Aircraft | A319/M-SDE3FGHIRWY/LB1 |
Departure
| Time | 2026-05-06 13:21 |
|---|---|
| Airport | Munich Airport (EDDM) |
Arrival
| Time | N/A |
|---|---|
| Airport | Berlin Brandenburg Airport (EDDB) |
| Time | Latitude | Longitude | Altitude | Speed | Heading |
|---|---|---|---|---|---|
| 2026-05-06 12:45 | 48.35547 | 11.79294 | 1473 ft | 0 kts | 263° |
| 2026-05-06 13:01 | 48.35548 | 11.79310 | 1470 ft | 3 kts | 263° |
| 2026-05-06 13:01 | 48.35550 | 11.79338 | 1481 ft | 3 kts | 263° |
| 2026-05-06 13:02 | 48.35552 | 11.79366 | 1478 ft | 3 kts | 263° |
| 2026-05-06 13:02 | 48.35555 | 11.79393 | 1477 ft | 2 kts | 279° |
| 2026-05-06 13:02 | 48.35546 | 11.79414 | 1471 ft | 3 kts | 324° |
| 2026-05-06 13:02 | 48.35531 | 11.79432 | 1476 ft | 3 kts | 341° |
| 2026-05-06 13:03 | 48.35513 | 11.79439 | 1482 ft | 3 kts | 348° |
| 2026-05-06 13:03 | 48.35509 | 11.79441 | 1483 ft | 0 kts | 348° |
| 2026-05-06 13:14 | 48.35513 | 11.79439 | 1485 ft | 2 kts | 348° |
| 2026-05-06 13:14 | 48.35547 | 11.79430 | 1476 ft | 8 kts | 351° |
| 2026-05-06 13:14 | 48.35607 | 11.79425 | 1483 ft | 9 kts | 356° |
| 2026-05-06 13:14 | 48.35675 | 11.79421 | 1485 ft | 10 kts | 358° |
| 2026-05-06 13:15 | 48.35749 | 11.79404 | 1480 ft | 11 kts | 349° |
| 2026-05-06 13:15 | 48.35831 | 11.79385 | 1483 ft | 13 kts | 353° |
| 2026-05-06 13:15 | 48.35919 | 11.79354 | 1475 ft | 14 kts | 329° |
| 2026-05-06 13:15 | 48.36012 | 11.79321 | 1480 ft | 14 kts | 353° |
| 2026-05-06 13:16 | 48.36087 | 11.79259 | 1480 ft | 14 kts | 264° |
| 2026-05-06 13:16 | 48.36072 | 11.79109 | 1485 ft | 15 kts | 262° |
| 2026-05-06 13:16 | 48.36060 | 11.78952 | 1485 ft | 15 kts | 263° |
| 2026-05-06 13:16 | 48.36049 | 11.78787 | 1485 ft | 16 kts | 266° |
| 2026-05-06 13:17 | 48.36040 | 11.78616 | 1485 ft | 17 kts | 264° |
| 2026-05-06 13:17 | 48.36022 | 11.78439 | 1485 ft | 17 kts | 261° |
| 2026-05-06 13:17 | 48.36009 | 11.78249 | 1485 ft | 20 kts | 264° |
| 2026-05-06 13:17 | 48.35993 | 11.78033 | 1485 ft | 21 kts | 263° |
| 2026-05-06 13:18 | 48.35974 | 11.77811 | 1478 ft | 22 kts | 263° |
| 2026-05-06 13:18 | 48.35956 | 11.77583 | 1485 ft | 22 kts | 264° |
| 2026-05-06 13:18 | 48.35939 | 11.77351 | 1485 ft | 23 kts | 264° |
| 2026-05-06 13:18 | 48.35924 | 11.77117 | 1483 ft | 20 kts | 264° |
| 2026-05-06 13:19 | 48.35949 | 11.77026 | 1480 ft | 8 kts | 345° |
| 2026-05-06 13:19 | 48.35998 | 11.77023 | 1478 ft | 2 kts | 360° |
| 2026-05-06 13:19 | 48.36015 | 11.77021 | 1482 ft | 3 kts | 349° |
| 2026-05-06 13:19 | 48.36044 | 11.76987 | 1485 ft | 10 kts | 320° |
| 2026-05-06 13:20 | 48.36141 | 11.76957 | 1485 ft | 18 kts | 354° |
| 2026-05-06 13:20 | 48.36272 | 11.76940 | 1480 ft | 19 kts | 14° |
| 2026-05-06 13:20 | 48.36305 | 11.77121 | 1485 ft | 23 kts | 84° |
| 2026-05-06 13:20 | 48.36349 | 11.77764 | 1482 ft | 101 kts | 84° |
| 2026-05-06 13:21 | 48.36469 | 11.79137 | 1483 ft | 161 kts | 82° |
| 2026-05-06 13:21 | 48.36608 | 11.80867 | 2083 ft | 168 kts | 84° |
| 2026-05-06 13:21 | 48.36736 | 11.82635 | 2869 ft | 170 kts | 84° |
| 2026-05-06 13:21 | 48.36869 | 11.84431 | 3519 ft | 180 kts | 82° |
| 2026-05-06 13:22 | 48.37220 | 11.86360 | 3925 ft | 206 kts | 63° |
| 2026-05-06 13:22 | 48.38150 | 11.88077 | 4653 ft | 218 kts | 39° |
| 2026-05-06 13:22 | 48.39466 | 11.89366 | 5332 ft | 236 kts | 33° |
| 2026-05-06 13:22 | 48.40932 | 11.90739 | 5868 ft | 261 kts | 33° |
| 2026-05-06 13:23 | 48.42438 | 11.92447 | 6455 ft | 279 kts | 50° |
| 2026-05-06 13:23 | 48.43606 | 11.94843 | 6878 ft | 287 kts | 57° |
| 2026-05-06 13:23 | 48.44708 | 11.97303 | 6975 ft | 288 kts | 58° |
| 2026-05-06 13:23 | 48.45855 | 11.99771 | 6995 ft | 289 kts | 51° |
| 2026-05-06 13:24 | 48.47346 | 12.01809 | 6995 ft | 291 kts | 35° |
| 2026-05-06 13:24 | 48.49151 | 12.03169 | 6999 ft | 292 kts | 18° |
| 2026-05-06 13:24 | 48.51142 | 12.03752 | 6992 ft | 292 kts | 2° |
| 2026-05-06 13:24 | 48.53167 | 12.03773 | 6985 ft | 291 kts | 359° |
| 2026-05-06 13:25 | 48.55199 | 12.03773 | 6989 ft | 292 kts | 359° |
| 2026-05-06 13:25 | 48.57224 | 12.03774 | 6986 ft | 291 kts | 359° |
| 2026-05-06 13:25 | 48.59248 | 12.03776 | 6996 ft | 291 kts | 360° |
| 2026-05-06 13:25 | 48.61274 | 12.03848 | 6992 ft | 291 kts | 6° |
| 2026-05-06 13:26 | 48.63251 | 12.04476 | 6991 ft | 291 kts | 19° |
| 2026-05-06 13:26 | 48.65117 | 12.05666 | 6991 ft | 291 kts | 25° |
| 2026-05-06 13:26 | 48.66979 | 12.06948 | 7528 ft | 295 kts | 25° |
| 2026-05-06 13:26 | 48.68856 | 12.08236 | 8586 ft | 299 kts | 24° |
| 2026-05-06 13:27 | 48.70769 | 12.09551 | 9566 ft | 305 kts | 24° |
| 2026-05-06 13:27 | 48.72724 | 12.10888 | 10453 ft | 311 kts | 23° |
| 2026-05-06 13:27 | 48.74718 | 12.12249 | 11320 ft | 317 kts | 22° |
| 2026-05-06 13:27 | 48.76779 | 12.13671 | 11884 ft | 337 kts | 23° |
| 2026-05-06 13:28 | 48.78965 | 12.15224 | 12395 ft | 354 kts | 24° |
| 2026-05-06 13:28 | 48.81217 | 12.16850 | 13185 ft | 362 kts | 24° |
| 2026-05-06 13:28 | 48.83507 | 12.18516 | 13940 ft | 369 kts | 24° |
| 2026-05-06 13:28 | 48.85840 | 12.20216 | 14671 ft | 374 kts | 24° |
| 2026-05-06 13:29 | 48.88208 | 12.21938 | 15398 ft | 380 kts | 24° |
| 2026-05-06 13:29 | 48.90611 | 12.23668 | 16123 ft | 386 kts | 24° |
| 2026-05-06 13:29 | 48.93064 | 12.25404 | 16829 ft | 391 kts | 24° |
| 2026-05-06 13:29 | 48.95522 | 12.27128 | 17525 ft | 397 kts | 24° |
| 2026-05-06 13:30 | 48.98048 | 12.28897 | 18211 ft | 403 kts | 24° |
| 2026-05-06 13:30 | 49.00608 | 12.30695 | 18834 ft | 408 kts | 24° |
| 2026-05-06 13:30 | 49.03196 | 12.32516 | 19491 ft | 412 kts | 24° |
| 2026-05-06 13:30 | 49.05810 | 12.34360 | 20152 ft | 416 kts | 24° |
| 2026-05-06 13:31 | 49.08439 | 12.36221 | 20821 ft | 420 kts | 24° |
| 2026-05-06 13:31 | 49.11097 | 12.38105 | 21491 ft | 423 kts | 24° |
| 2026-05-06 13:31 | 49.13782 | 12.40011 | 22143 ft | 427 kts | 24° |
| 2026-05-06 13:31 | 49.16490 | 12.41936 | 22750 ft | 432 kts | 24° |
| 2026-05-06 13:32 | 49.19225 | 12.43881 | 23340 ft | 436 kts | 24° |
| 2026-05-06 13:32 | 49.21989 | 12.45845 | 23880 ft | 440 kts | 24° |
| 2026-05-06 13:32 | 49.24780 | 12.47835 | 24426 ft | 444 kts | 24° |
| 2026-05-06 13:32 | 49.27590 | 12.49843 | 24957 ft | 448 kts | 24° |
| 2026-05-06 13:33 | 49.30428 | 12.51877 | 25503 ft | 451 kts | 24° |
| 2026-05-06 13:33 | 49.33244 | 12.54028 | 26026 ft | 455 kts | 30° |
| 2026-05-06 13:33 | 49.35880 | 12.56752 | 26474 ft | 459 kts | 37° |
| 2026-05-06 13:33 | 49.38452 | 12.59707 | 26912 ft | 464 kts | 37° |
| 2026-05-06 13:34 | 49.41039 | 12.62690 | 27360 ft | 468 kts | 37° |
| 2026-05-06 13:34 | 49.43713 | 12.65562 | 27822 ft | 470 kts | 30° |
| 2026-05-06 13:34 | 49.46621 | 12.67892 | 28277 ft | 472 kts | 23° |
| 2026-05-06 13:34 | 49.49599 | 12.70074 | 28693 ft | 476 kts | 23° |
| 2026-05-06 13:35 | 49.52571 | 12.72251 | 28771 ft | 467 kts | 24° |
| 2026-05-06 13:35 | 49.55447 | 12.74375 | 28776 ft | 451 kts | 24° |
| 2026-05-06 13:35 | 49.58255 | 12.76455 | 28788 ft | 445 kts | 24° |
| 2026-05-06 13:36 | 49.63829 | 12.80514 | 28778 ft | 441 kts | 19° |
| 2026-05-06 13:36 | 49.69727 | 12.82747 | 28784 ft | 435 kts | 4° |
| 2026-05-06 13:37 | 49.75714 | 12.84106 | 28786 ft | 435 kts | 4° |
| 2026-05-06 13:37 | 49.81700 | 12.85493 | 28783 ft | 435 kts | 4° |
| 2026-05-06 13:38 | 49.87688 | 12.86884 | 28782 ft | 435 kts | 4° |
| 2026-05-06 13:38 | 49.93668 | 12.88265 | 28795 ft | 434 kts | 5° |
| 2026-05-06 13:39 | 49.99642 | 12.89649 | 28803 ft | 434 kts | 5° |
| 2026-05-06 13:39 | 50.05570 | 12.91039 | 28804 ft | 433 kts | 5° |
| 2026-05-06 13:40 | 50.11531 | 12.92435 | 28803 ft | 433 kts | 5° |
| 2026-05-06 13:40 | 50.17489 | 12.93821 | 28814 ft | 433 kts | 5° |
| 2026-05-06 13:41 | 50.23476 | 12.95224 | 28838 ft | 432 kts | 5° |
| 2026-05-06 13:41 | 50.29352 | 12.97193 | 28827 ft | 435 kts | 18° |
| 2026-05-06 13:42 | 50.34822 | 13.01286 | 28810 ft | 436 kts | 25° |
| 2026-05-06 13:42 | 50.40237 | 13.05577 | 28768 ft | 436 kts | 25° |
| 2026-05-06 13:43 | 50.45623 | 13.09842 | 28758 ft | 437 kts | 25° |